sensor_id;sensor_type;location;lat;lon;timestamp;pressure;altitude;pressure_sealevel;temperature;humidity
49723;BME280;43484;43.608;1.458;2023-03-01T00:01:19;100435.59;;;1.72;100.00
49723;BME280;43484;43.608;1.458;2023-03-01T00:03:47;100434.94;;;1.75;100.00
49723;BME280;43484;43.608;1.458;2023-03-01T00:06:15;100436.38;;;1.83;100.00
49723;BME280;43484;43.608;1.458;2023-03-01T00:08:41;100441.19;;;1.80;100.00
49723;BME280;43484;43.608;1.458;2023-03-01T00:11:13;100439.56;;;1.80;100.00
49723;BME280;43484;43.608;1.458;2023-03-01T00:13:40;100440.09;;;1.88;100.00
49723;BME280;43484;43.608;1.458;2023-03-01T00:16:11;100432.88;;;1.81;100.00
49723;BME280;43484;43.608;1.458;2023-03-01T00:18:38;100435.28;;;1.91;100.00
49723;BME280;43484;43.608;1.458;2023-03-01T00:21:05;100432.53;;;1.99;100.00
49723;BME280;43484;43.608;1.458;2023-03-01T00:23:36;100431.00;;;1.90;100.00
49723;BME280;43484;43.608;1.458;2023-03-01T00:26:07;100429.69;;;1.95;100.00
49723;BME280;43484;43.608;1.458;2023-03-01T00:28:34;100426.84;;;1.90;100.00
49723;BME280;43484;43.608;1.458;2023-03-01T00:31:06;100427.38;;;1.86;100.00
49723;BME280;43484;43.608;1.458;2023-03-01T00:33:33;100427.47;;;1.88;100.00
49723;BME280;43484;43.608;1.458;2023-03-01T00:36:00;100427.16;;;1.83;100.00
49723;BME280;43484;43.608;1.458;2023-03-01T00:38:27;100426.06;;;1.91;100.00
49723;BME280;43484;43.608;1.458;2023-03-01T00:40:53;100419.88;;;1.76;100.00
49723;BME280;43484;43.608;1.458;2023-03-01T00:43:21;100414.19;;;1.67;100.00
49723;BME280;43484;43.608;1.458;2023-03-01T00:45:47;100421.88;;;1.69;100.00
49723;BME280;43484;43.608;1.458;2023-03-01T00:48:14;100420.97;;;1.68;100.00
49723;BME280;43484;43.608;1.458;2023-03-01T00:50:41;100409.91;;;1.78;100.00
49723;BME280;43484;43.608;1.458;2023-03-01T00:53:07;100416.34;;;1.63;100.00
49723;BME280;43484;43.608;1.458;2023-03-01T00:55:35;100415.94;;;1.68;100.00
49723;BME280;43484;43.608;1.458;2023-03-01T00:58:03;100410.09;;;1.58;100.00
49723;BME280;43484;43.608;1.458;2023-03-01T01:00:29;100412.06;;;1.50;100.00
49723;BME280;43484;43.608;1.458;2023-03-01T01:02:56;100411.06;;;1.37;100.00
49723;BME280;43484;43.608;1.458;2023-03-01T01:05:22;100412.56;;;1.35;100.00
49723;BME280;43484;43.608;1.458;2023-03-01T01:07:49;100413.56;;;1.37;100.00
49723;BME280;43484;43.608;1.458;2023-03-01T01:10:16;100416.72;;;1.34;100.00
49723;BME280;43484;43.608;1.458;2023-03-01T01:12:47;100412.78;;;1.26;100.00
49723;BME280;43484;43.608;1.458;2023-03-01T01:15:14;100412.88;;;1.27;100.00
49723;BME280;43484;43.608;1.458;2023-03-01T01:17:42;100407.50;;;1.23;100.00
49723;BME280;43484;43.608;1.458;2023-03-01T01:20:10;100402.69;;;1.26;100.00
49723;BME280;43484;43.608;1.458;2023-03-01T01:22:37;100403.69;;;1.28;100.00
49723;BME280;43484;43.608;1.458;2023-03-01T01:25:04;100394.78;;;1.21;100.00
49723;BME280;43484;43.608;1.458;2023-03-01T01:27:31;100395.56;;;1.20;100.00
49723;BME280;43484;43.608;1.458;2023-03-01T01:29:58;100390.91;;;1.15;100.00
49723;BME280;43484;43.608;1.458;2023-03-01T01:32:24;100394.00;;;1.22;100.00
49723;BME280;43484;43.608;1.458;2023-03-01T01:34:52;100396.06;;;1.16;100.00
49723;BME280;43484;43.608;1.458;2023-03-01T01:37:19;100387.22;;;1.21;100.00
49723;BME280;43484;43.608;1.458;2023-03-01T01:39:45;100382.69;;;1.17;100.00
49723;BME280;43484;43.608;1.458;2023-03-01T01:42:15;100380.94;;;1.16;100.00
49723;BME280;43484;43.608;1.458;2023-03-01T01:44:45;100381.25;;;1.09;100.00
49723;BME280;43484;43.608;1.458;2023-03-01T01:47:21;100371.22;;;0.99;100.00
49723;BME280;43484;43.608;1.458;2023-03-01T01:49:54;100374.97;;;1.04;100.00
49723;BME280;43484;43.608;1.458;2023-03-01T01:52:34;100370.13;;;0.96;100.00
49723;BME280;43484;43.608;1.458;2023-03-01T01:55:06;100371.72;;;1.05;100.00
49723;BME280;43484;43.608;1.458;2023-03-01T01:57:55;100363.25;;;1.05;100.00
49723;BME280;43484;43.608;1.458;2023-03-01T02:00:28;100353.91;;;1.04;100.00
49723;BME280;43484;43.608;1.458;2023-03-01T02:02:59;100362.91;;;1.00;100.00
49723;BME280;43484;43.608;1.458;2023-03-01T02:05:47;100360.41;;;1.00;100.00
49723;BME280;43484;43.608;1.458;2023-03-01T02:08:23;100352.50;;;1.07;100.00
49723;BME280;43484;43.608;1.458;2023-03-01T02:10:51;100359.03;;;0.94;100.00
49723;BME280;43484;43.608;1.458;2023-03-01T02:13:19;100350.75;;;1.06;100.00
49723;BME280;43484;43.608;1.458;2023-03-01T02:15:45;100352.59;;;1.09;100.00
49723;BME280;43484;43.608;1.458;2023-03-01T02:18:16;100356.78;;;1.08;100.00
49723;BME280;43484;43.608;1.458;2023-03-01T02:20:49;100349.63;;;1.03;100.00
49723;BME280;43484;43.608;1.458;2023-03-01T02:23:17;100349.91;;;0.84;100.00
49723;BME280;43484;43.608;1.458;2023-03-01T02:25:54;100345.09;;;0.87;100.00
49723;BME280;43484;43.608;1.458;2023-03-01T02:28:35;100345.50;;;0.70;100.00
49723;BME280;43484;43.608;1.458;2023-03-01T02:31:03;100352.69;;;0.66;100.00
49723;BME280;43484;43.608;1.458;2023-03-01T02:33:49;100338.03;;;0.72;100.00
49723;BME280;43484;43.608;1.458;2023-03-01T02:36:20;100331.84;;;0.57;100.00
49723;BME280;43484;43.608;1.458;2023-03-01T02:38:48;100331.53;;;0.42;100.00
49723;BME280;43484;43.608;1.458;2023-03-01T02:41:17;100328.59;;;0.48;100.00
49723;BME280;43484;43.608;1.458;2023-03-01T02:43:46;100327.91;;;0.39;100.00
49723;BME280;43484;43.608;1.458;2023-03-01T02:46:16;100323.13;;;0.42;100.00
49723;BME280;43484;43.608;1.458;2023-03-01T02:48:49;100317.75;;;0.49;100.00
49723;BME280;43484;43.608;1.458;2023-03-01T02:51:27;100314.94;;;0.56;100.00
49723;BME280;43484;43.608;1.458;2023-03-01T02:56:46;100315.66;;;0.65;100.00
49723;BME280;43484;43.608;1.458;2023-03-01T02:59:18;100321.97;;;0.60;100.00
49723;BME280;43484;43.608;1.458;2023-03-01T03:01:46;100312.31;;;0.54;100.00
49723;BME280;43484;43.608;1.458;2023-03-01T03:04:15;100310.34;;;0.50;100.00
49723;BME280;43484;43.608;1.458;2023-03-01T03:06:48;100311.56;;;0.55;100.00
49723;BME280;43484;43.608;1.458;2023-03-01T03:09:17;100313.31;;;0.56;100.00
49723;BME280;43484;43.608;1.458;2023-03-01T03:11:44;100314.81;;;0.54;100.00
49723;BME280;43484;43.608;1.458;2023-03-01T03:14:13;100310.78;;;0.56;100.00
49723;BME280;43484;43.608;1.458;2023-03-01T03:16:46;100305.63;;;0.55;100.00
49723;BME280;43484;43.608;1.458;2023-03-01T03:19:13;100311.56;;;0.55;100.00
49723;BME280;43484;43.608;1.458;2023-03-01T03:21:40;100311.41;;;0.54;100.00
49723;BME280;43484;43.608;1.458;2023-03-01T03:24:07;100312.41;;;0.56;100.00
49723;BME280;43484;43.608;1.458;2023-03-01T03:26:33;100305.03;;;0.47;100.00
49723;BME280;43484;43.608;1.458;2023-03-01T03:29:00;100300.88;;;0.48;100.00
49723;BME280;43484;43.608;1.458;2023-03-01T03:31:27;100304.94;;;0.46;100.00
49723;BME280;43484;43.608;1.458;2023-03-01T03:33:54;100309.84;;;0.44;100.00
49723;BME280;43484;43.608;1.458;2023-03-01T03:36:23;100305.03;;;0.47;100.00
49723;BME280;43484;43.608;1.458;2023-03-01T03:38:50;100296.25;;;0.42;100.00
49723;BME280;43484;43.608;1.458;2023-03-01T03:41:17;100292.69;;;0.29;100.00
49723;BME280;43484;43.608;1.458;2023-03-01T03:43:43;100292.06;;;0.31;100.00
49723;BME280;43484;43.608;1.458;2023-03-01T03:46:11;100299.63;;;0.31;100.00
49723;BME280;43484;43.608;1.458;2023-03-01T03:48:40;100298.53;;;0.39;100.00
49723;BME280;43484;43.608;1.458;2023-03-01T03:51:10;100300.91;;;0.26;100.00
49723;BME280;43484;43.608;1.458;2023-03-01T03:53:37;100301.78;;;0.27;100.00
49723;BME280;43484;43.608;1.458;2023-03-01T03:56:04;100297.50;;;0.26;100.00
49723;BME280;43484;43.608;1.458;2023-03-01T03:58:32;100296.16;;;0.19;100.00
49723;BME280;43484;43.608;1.458;2023-03-01T04:00:59;100293.63;;;0.19;100.00
49723;BME280;43484;43.608;1.458;2023-03-01T04:03:29;100297.66;;;0.17;100.00
49723;BME280;43484;43.608;1.458;2023-03-01T04:06:00;100286.84;;;0.18;100.00
49723;BME280;43484;43.608;1.458;2023-03-01T04:08:27;100293.63;;;0.19;100.00
49723;BME280;43484;43.608;1.458;2023-03-01T04:11:00;100286.47;;;0.14;100.00
49723;BME280;43484;43.608;1.458;2023-03-01T04:13:47;100282.47;;;0.49;100.00
49723;BME280;43484;43.608;1.458;2023-03-01T04:16:14;100290.00;;;0.37;100.00
49723;BME280;43484;43.608;1.458;2023-03-01T04:18:41;100286.56;;;0.25;100.00
49723;BME280;43484;43.608;1.458;2023-03-01T04:21:07;100287.41;;;0.26;100.00
49723;BME280;43484;43.608;1.458;2023-03-01T04:23:34;100288.72;;;0.21;100.00
49723;BME280;43484;43.608;1.458;2023-03-01T04:26:01;100281.59;;;0.15;100.00
49723;BME280;43484;43.608;1.458;2023-03-01T04:28:34;100283.84;;;0.12;100.00
49723;BME280;43484;43.608;1.458;2023-03-01T04:31:16;100280.09;;;0.07;100.00
49723;BME280;43484;43.608;1.458;2023-03-01T04:33:46;100276.59;;;0.05;100.00
49723;BME280;43484;43.608;1.458;2023-03-01T04:36:15;100276.34;;;0.02;100.00
49723;BME280;43484;43.608;1.458;2023-03-01T04:38:42;100276.34;;;0.02;100.00
49723;BME280;43484;43.608;1.458;2023-03-01T04:41:15;100266.53;;;0.05;100.00
49723;BME280;43484;43.608;1.458;2023-03-01T04:43:42;100274.31;;;0.08;100.00
49723;BME280;43484;43.608;1.458;2023-03-01T04:46:12;100274.72;;;0.03;100.00
49723;BME280;43484;43.608;1.458;2023-03-01T04:48:42;100271.56;;;0.05;100.00
49723;BME280;43484;43.608;1.458;2023-03-01T04:51:09;100267.03;;;0.01;100.00
49723;BME280;43484;43.608;1.458;2023-03-01T04:53:40;100265.03;;;-0.03;100.00
49723;BME280;43484;43.608;1.458;2023-03-01T04:56:07;100267.31;;;-0.06;100.00
49723;BME280;43484;43.608;1.458;2023-03-01T04:58:34;100271.59;;;-0.05;100.00
49723;BME280;43484;43.608;1.458;2023-03-01T05:01:01;100272.97;;;0.02;100.00
49723;BME280;43484;43.608;1.458;2023-03-01T05:03:27;100283.66;;;-0.01;100.00
49723;BME280;43484;43.608;1.458;2023-03-01T05:05:58;100285.28;;;-0.02;100.00
49723;BME280;43484;43.608;1.458;2023-03-01T05:08:25;100282.19;;;-0.09;100.00
49723;BME280;43484;43.608;1.458;2023-03-01T05:10:53;100285.22;;;-0.13;100.00
49723;BME280;43484;43.608;1.458;2023-03-01T05:13:21;100284.50;;;-0.12;100.00
49723;BME280;43484;43.608;1.458;2023-03-01T05:15:59;100286.47;;;-0.08;100.00
49723;BME280;43484;43.608;1.458;2023-03-01T05:18:27;100272.75;;;-0.12;100.00
49723;BME280;43484;43.608;1.458;2023-03-01T05:21:00;100281.97;;;-0.12;100.00
49723;BME280;43484;43.608;1.458;2023-03-01T05:23:27;100278.34;;;-0.16;100.00
49723;BME280;43484;43.608;1.458;2023-03-01T05:25:57;100281.34;;;-0.20;100.00
49723;BME280;43484;43.608;1.458;2023-03-01T05:28:24;100270.41;;;-0.20;100.00
49723;BME280;43484;43.608;1.458;2023-03-01T05:30:52;100275.31;;;-0.22;100.00
49723;BME280;43484;43.608;1.458;2023-03-01T05:33:18;100270.34;;;-0.10;100.00
49723;BME280;43484;43.608;1.458;2023-03-01T05:35:45;100263.56;;;-0.11;100.00
49723;BME280;43484;43.608;1.458;2023-03-01T05:38:12;100262.34;;;-0.16;100.00
49723;BME280;43484;43.608;1.458;2023-03-01T05:40:43;100258.81;;;-0.18;100.00
49723;BME280;43484;43.608;1.458;2023-03-01T05:43:11;100266.81;;;-0.24;100.00
49723;BME280;43484;43.608;1.458;2023-03-01T05:45:38;100270.41;;;-0.20;100.00
49723;BME280;43484;43.608;1.458;2023-03-01T05:48:06;100273.06;;;-0.19;100.00
49723;BME280;43484;43.608;1.458;2023-03-01T05:50:36;100261.91;;;-0.01;100.00
49723;BME280;43484;43.608;1.458;2023-03-01T05:53:05;100261.66;;;-0.04;100.00
49723;BME280;43484;43.608;1.458;2023-03-01T05:55:34;100265.94;;;-0.03;100.00
49723;BME280;43484;43.608;1.458;2023-03-01T05:58:04;100266.31;;;-0.08;100.00
49723;BME280;43484;43.608;1.458;2023-03-01T06:00:31;100273.41;;;-0.14;100.00
49723;BME280;43484;43.608;1.458;2023-03-01T06:02:59;100268.44;;;-0.03;100.00
49723;BME280;43484;43.608;1.458;2023-03-01T06:05:26;100278.56;;;-0.13;100.00
49723;BME280;43484;43.608;1.458;2023-03-01T06:07:58;100269.66;;;-0.19;100.00
49723;BME280;43484;43.608;1.458;2023-03-01T06:10:25;100278.50;;;-0.24;100.00
49723;BME280;43484;43.608;1.458;2023-03-01T06:12:53;100266.47;;;-0.38;100.00
49723;BME280;43484;43.608;1.458;2023-03-01T06:15:20;100273.88;;;-0.40;100.00
49723;BME280;43484;43.608;1.458;2023-03-01T06:17:47;100267.97;;;-0.40;100.00
49723;BME280;43484;43.608;1.458;2023-03-01T06:20:17;100267.84;;;-0.42;100.00
49723;BME280;43484;43.608;1.458;2023-03-01T06:22:44;100270.09;;;-0.35;100.00
49723;BME280;43484;43.608;1.458;2023-03-01T06:25:14;100269.09;;;-0.37;100.00
49723;BME280;43484;43.608;1.458;2023-03-01T06:27:41;100272.38;;;-0.38;100.00
49723;BME280;43484;43.608;1.458;2023-03-01T06:30:10;100270.63;;;-0.39;100.00
49723;BME280;43484;43.608;1.458;2023-03-01T06:32:37;100271.59;;;-0.37;100.00
49723;BME280;43484;43.608;1.458;2023-03-01T06:35:10;100270.47;;;-0.40;100.00
49723;BME280;43484;43.608;1.458;2023-03-01T06:37:37;100269.50;;;-0.42;100.00
49723;BME280;43484;43.608;1.458;2023-03-01T06:40:05;100266.22;;;-0.41;100.00
49723;BME280;43484;43.608;1.458;2023-03-01T06:42:35;100262.94;;;-0.40;100.00
49723;BME280;43484;43.608;1.458;2023-03-01T06:45:04;100265.44;;;-0.40;100.00
49723;BME280;43484;43.608;1.458;2023-03-01T06:47:31;100268.63;;;-0.43;100.00
49723;BME280;43484;43.608;1.458;2023-03-01T06:50:00;100264.38;;;-0.44;100.00
49723;BME280;43484;43.608;1.458;2023-03-01T06:52:27;100271.63;;;-0.47;100.00
49723;BME280;43484;43.608;1.458;2023-03-01T06:54:53;100267.50;;;-0.46;100.00
49723;BME280;43484;43.608;1.458;2023-03-01T06:57:20;100265.75;;;-0.47;100.00
49723;BME280;43484;43.608;1.458;2023-03-01T06:59:47;100272.44;;;-0.58;100.00
49723;BME280;43484;43.608;1.458;2023-03-01T07:02:15;100274.47;;;-0.54;100.00
49723;BME280;43484;43.608;1.458;2023-03-01T07:04:42;100273.03;;;-0.50;100.00
49723;BME280;43484;43.608;1.458;2023-03-01T07:07:09;100274.50;;;-0.64;100.00
49723;BME280;43484;43.608;1.458;2023-03-01T07:09:36;100267.06;;;-0.62;100.00
49723;BME280;43484;43.608;1.458;2023-03-01T07:12:03;100267.81;;;-0.63;100.00
49723;BME280;43484;43.608;1.458;2023-03-01T07:14:30;100271.06;;;-0.54;100.00
49723;BME280;43484;43.608;1.458;2023-03-01T07:16:57;100279.56;;;-0.42;100.00
49723;BME280;43484;43.608;1.458;2023-03-01T07:19:24;100282.84;;;-0.43;100.00
49723;BME280;43484;43.608;1.458;2023-03-01T07:21:50;100270.31;;;-0.32;100.00
49723;BME280;43484;43.608;1.458;2023-03-01T07:24:17;100270.31;;;-0.32;100.00
49723;BME280;43484;43.608;1.458;2023-03-01T07:26:44;100270.63;;;-0.39;100.00
49723;BME280;43484;43.608;1.458;2023-03-01T07:29:10;100272.84;;;-0.32;100.00
49723;BME280;43484;43.608;1.458;2023-03-01T07:31:37;100276.47;;;-0.28;100.00
49723;BME280;43484;43.608;1.458;2023-03-01T07:34:04;100276.59;;;-0.27;100.00
49723;BME280;43484;43.608;1.458;2023-03-01T07:36:30;100284.53;;;-0.22;100.00
49723;BME280;43484;43.608;1.458;2023-03-01T07:38:58;100280.75;;;-0.17;100.00
49723;BME280;43484;43.608;1.458;2023-03-01T07:41:24;100276.81;;;-0.14;100.00
49723;BME280;43484;43.608;1.458;2023-03-01T07:43:51;100284.94;;;-0.06;100.00
49723;BME280;43484;43.608;1.458;2023-03-01T07:46:18;100279.75;;;0.03;100.00
49723;BME280;43484;43.608;1.458;2023-03-01T07:48:46;100292.44;;;0.04;100.00
49723;BME280;43484;43.608;1.458;2023-03-01T07:51:13;100291.94;;;0.08;100.00
49723;BME280;43484;43.608;1.458;2023-03-01T07:53:39;100288.13;;;0.13;100.00
49723;BME280;43484;43.608;1.458;2023-03-01T07:56:11;100291.00;;;0.18;100.00
49723;BME280;43484;43.608;1.458;2023-03-01T07:58:41;100296.44;;;0.12;100.00
49723;BME280;43484;43.608;1.458;2023-03-01T08:01:11;100293.91;;;0.12;100.00
49723;BME280;43484;43.608;1.458;2023-03-01T08:03:38;100292.28;;;0.13;100.00
49723;BME280;43484;43.608;1.458;2023-03-01T08:06:07;100297.66;;;0.17;100.00
49723;BME280;43484;43.608;1.458;2023-03-01T08:08:34;100296.88;;;0.28;100.00
49723;BME280;43484;43.608;1.458;2023-03-01T08:11:04;100290.31;;;0.30;100.00
49723;BME280;43484;43.608;1.458;2023-03-01T08:13:31;100293.06;;;0.33;100.00
49723;BME280;43484;43.608;1.458;2023-03-01T08:16:03;100291.22;;;0.42;100.00
49723;BME280;43484;43.608;1.458;2023-03-01T08:18:30;100285.28;;;0.30;100.00
49723;BME280;43484;43.608;1.458;2023-03-01T08:21:15;100284.59;;;0.33;100.00
49723;BME280;43484;43.608;1.458;2023-03-01T08:23:42;100285.28;;;0.30;100.00
49723;BME280;43484;43.608;1.458;2023-03-01T08:26:17;100284.09;;;0.37;100.00
49723;BME280;43484;43.608;1.458;2023-03-01T08:28:46;100283.59;;;0.52;100.00
49723;BME280;43484;43.608;1.458;2023-03-01T08:31:25;100273.91;;;0.68;100.00
49723;BME280;43484;43.608;1.458;2023-03-01T08:33:57;100276.13;;;0.54;100.00
49723;BME280;43484;43.608;1.458;2023-03-01T08:36:26;100275.09;;;0.62;100.00
49723;BME280;43484;43.608;1.458;2023-03-01T08:38:54;100277.53;;;0.72;100.00
49723;BME280;43484;43.608;1.458;2023-03-01T08:41:21;100283.63;;;0.64;100.00
49723;BME280;43484;43.608;1.458;2023-03-01T08:43:48;100283.28;;;0.59;100.00
49723;BME280;43484;43.608;1.458;2023-03-01T08:46:14;100273.75;;;0.55;100.00
49723;BME280;43484;43.608;1.458;2023-03-01T08:48:41;100276.28;;;0.55;100.00
49723;BME280;43484;43.608;1.458;2023-03-01T08:51:13;100274.75;;;0.69;100.00
49723;BME280;43484;43.608;1.458;2023-03-01T08:53:41;100263.53;;;0.75;100.00
49723;BME280;43484;43.608;1.458;2023-03-01T08:56:08;100259.50;;;0.56;100.00
49723;BME280;43484;43.608;1.458;2023-03-01T08:58:35;100265.13;;;0.63;100.00
49723;BME280;43484;43.608;1.458;2023-03-01T09:01:09;100268.13;;;0.81;100.00
49723;BME280;43484;43.608;1.458;2023-03-01T09:03:37;100272.94;;;0.78;100.00
49723;BME280;43484;43.608;1.458;2023-03-01T09:06:05;100265.72;;;0.94;100.00
49723;BME280;43484;43.608;1.458;2023-03-01T09:08:35;100262.47;;;1.06;100.00
49723;BME280;43484;43.608;1.458;2023-03-01T09:11:03;100264.47;;;1.22;100.00
49723;BME280;43484;43.608;1.458;2023-03-01T09:13:30;100275.63;;;1.14;100.00
49723;BME280;43484;43.608;1.458;2023-03-01T09:16:02;100264.00;;;1.27;100.00
49723;BME280;43484;43.608;1.458;2023-03-01T09:18:29;100265.88;;;1.30;100.00
49723;BME280;43484;43.608;1.458;2023-03-01T09:21:06;100258.63;;;1.35;100.00
49723;BME280;43484;43.608;1.458;2023-03-01T09:23:37;100261.06;;;1.45;100.00
49723;BME280;43484;43.608;1.458;2023-03-01T09:26:10;100259.84;;;1.28;100.00
49723;BME280;43484;43.608;1.458;2023-03-01T09:28:38;100268.19;;;1.39;100.00
49723;BME280;43484;43.608;1.458;2023-03-01T09:31:05;100252.25;;;1.51;100.00
49723;BME280;43484;43.608;1.458;2023-03-01T09:33:32;100248.00;;;1.50;100.00
49723;BME280;43484;43.608;1.458;2023-03-01T09:36:02;100240.84;;;1.45;100.00
49723;BME280;43484;43.608;1.458;2023-03-01T09:38:30;100235.47;;;1.63;100.00
49723;BME280;43484;43.608;1.458;2023-03-01T09:40:57;100227.13;;;1.76;100.00
49723;BME280;43484;43.608;1.458;2023-03-01T09:43:44;100215.03;;;2.08;100.00
49723;BME280;43484;43.608;1.458;2023-03-01T09:46:14;100210.19;;;2.11;100.00
49723;BME280;43484;43.608;1.458;2023-03-01T09:48:49;100204.56;;;2.15;100.00
49723;BME280;43484;43.608;1.458;2023-03-01T09:51:26;100204.72;;;2.05;100.00
49723;BME280;43484;43.608;1.458;2023-03-01T09:53:54;100205.44;;;2.15;100.00
49723;BME280;43484;43.608;1.458;2023-03-01T09:56:41;100210.25;;;2.24;100.00
49723;BME280;43484;43.608;1.458;2023-03-01T10:01:59;100193.56;;;2.14;100.00
49723;BME280;43484;43.608;1.458;2023-03-01T10:09:38;100178.75;;;2.56;100.00
49723;BME280;43484;43.608;1.458;2023-03-01T10:12:14;100181.97;;;2.67;100.00
49723;BME280;43484;43.608;1.458;2023-03-01T10:22:41;100181.00;;;2.78;100.00
49723;BME280;43484;43.608;1.458;2023-03-01T10:25:13;100183.25;;;2.74;100.00
49723;BME280;43484;43.608;1.458;2023-03-01T10:27:53;100178.22;;;2.87;100.00
49723;BME280;43484;43.608;1.458;2023-03-01T10:30:35;100163.91;;;3.13;100.00
49723;BME280;43484;43.608;1.458;2023-03-01T10:33:15;100168.88;;;3.12;100.00
49723;BME280;43484;43.608;1.458;2023-03-01T10:35:43;100165.97;;;3.19;100.00
49723;BME280;43484;43.608;1.458;2023-03-01T10:38:14;100161.41;;;3.26;100.00
49723;BME280;43484;43.608;1.458;2023-03-01T10:41:04;100158.56;;;3.35;100.00
49723;BME280;43484;43.608;1.458;2023-03-01T10:43:49;100160.69;;;3.29;100.00
49723;BME280;43484;43.608;1.458;2023-03-01T10:49:20;100155.44;;;3.26;100.00
49723;BME280;43484;43.608;1.458;2023-03-01T10:51:51;100144.91;;;3.46;100.00
49723;BME280;43484;43.608;1.458;2023-03-01T10:54:28;100144.63;;;3.28;100.00
49723;BME280;43484;43.608;1.458;2023-03-01T10:56:57;100141.25;;;3.28;100.00
49723;BME280;43484;43.608;1.458;2023-03-01T10:59:32;100143.69;;;3.26;100.00
49723;BME280;43484;43.608;1.458;2023-03-01T11:07:54;100125.53;;;3.46;100.00
49723;BME280;43484;43.608;1.458;2023-03-01T11:10:25;100122.78;;;3.56;100.00
49723;BME280;43484;43.608;1.458;2023-03-01T11:12:53;100121.50;;;3.63;100.00
49723;BME280;43484;43.608;1.458;2023-03-01T11:15:29;100121.31;;;3.60;100.00
49723;BME280;43484;43.608;1.458;2023-03-01T11:17:57;100117.78;;;3.85;100.00
49723;BME280;43484;43.608;1.458;2023-03-01T11:20:39;100101.34;;;3.79;100.00
49723;BME280;43484;43.608;1.458;2023-03-01T11:23:10;100102.66;;;3.72;100.00
49723;BME280;43484;43.608;1.458;2023-03-01T11:26:00;100107.31;;;3.79;100.00
49723;BME280;43484;43.608;1.458;2023-03-01T11:28:29;100092.50;;;3.72;100.00
49723;BME280;43484;43.608;1.458;2023-03-01T11:31:06;100085.56;;;3.83;100.00
49723;BME280;43484;43.608;1.458;2023-03-01T11:33:48;100085.81;;;3.88;100.00
49723;BME280;43484;43.608;1.458;2023-03-01T11:36:30;100086.22;;;3.66;100.00
49723;BME280;43484;43.608;1.458;2023-03-01T11:39:05;100076.47;;;3.87;100.00
49723;BME280;43484;43.608;1.458;2023-03-01T11:41:40;100071.00;;;4.08;100.00
49723;BME280;43484;43.608;1.458;2023-03-01T11:44:14;100068.72;;;4.27;100.00
49723;BME280;43484;43.608;1.458;2023-03-01T11:52:36;100048.13;;;4.07;100.00
49723;BME280;43484;43.608;1.458;2023-03-01T12:01:28;100030.88;;;4.45;100.00
49723;BME280;43484;43.608;1.458;2023-03-01T12:26:16;99993.72;;;4.76;94.93
49723;BME280;43484;43.608;1.458;2023-03-01T12:28:55;100003.00;;;4.30;91.81
49723;BME280;43484;43.608;1.458;2023-03-01T12:48:25;99967.56;;;4.77;97.10
49723;BME280;43484;43.608;1.458;2023-03-01T12:50:58;99970.34;;;4.97;97.37
49723;BME280;43484;43.608;1.458;2023-03-01T12:53:29;99969.72;;;4.85;95.32
49723;BME280;43484;43.608;1.458;2023-03-01T12:56:19;99965.13;;;4.78;97.67
49723;BME280;43484;43.608;1.458;2023-03-01T12:59:08;99964.53;;;4.84;98.63
49723;BME280;43484;43.608;1.458;2023-03-01T13:07:30;99955.53;;;5.05;97.06
49723;BME280;43484;43.608;1.458;2023-03-01T13:10:33;99954.19;;;5.11;96.91
49723;BME280;43484;43.608;1.458;2023-03-01T13:13:11;99957.53;;;5.27;98.68
49723;BME280;43484;43.608;1.458;2023-03-01T13:15:38;99951.91;;;5.32;96.99
49723;BME280;43484;43.608;1.458;2023-03-01T13:23:24;99937.78;;;5.37;90.78
49723;BME280;43484;43.608;1.458;2023-03-01T13:26:16;99927.94;;;5.27;91.49
49723;BME280;43484;43.608;1.458;2023-03-01T13:33:58;99943.97;;;5.42;90.27
49723;BME280;43484;43.608;1.458;2023-03-01T13:39:00;99924.84;;;5.66;87.61
49723;BME280;43484;43.608;1.458;2023-03-01T13:41:56;99919.56;;;5.62;87.79
49723;BME280;43484;43.608;1.458;2023-03-01T13:44:35;99925.16;;;5.39;91.19
49723;BME280;43484;43.608;1.458;2023-03-01T13:47:16;99913.97;;;5.35;92.36
49723;BME280;43484;43.608;1.458;2023-03-01T13:50:02;99918.91;;;5.00;89.98
49723;BME280;43484;43.608;1.458;2023-03-01T13:52:39;99902.84;;;5.49;91.59
49723;BME280;43484;43.608;1.458;2023-03-01T13:55:27;99915.78;;;5.71;91.46
49723;BME280;43484;43.608;1.458;2023-03-01T13:58:03;99911.91;;;5.44;94.83
49723;BME280;43484;43.608;1.458;2023-03-01T14:00:38;99900.97;;;5.63;92.57
49723;BME280;43484;43.608;1.458;2023-03-01T14:03:10;99888.38;;;5.48;89.64
49723;BME280;43484;43.608;1.458;2023-03-01T14:05:38;99886.91;;;5.36;91.90
49723;BME280;43484;43.608;1.458;2023-03-01T14:08:18;99889.13;;;5.46;94.00
49723;BME280;43484;43.608;1.458;2023-03-01T14:10:53;99891.53;;;5.60;94.57
49723;BME280;43484;43.608;1.458;2023-03-01T14:16:27;99902.78;;;5.65;96.72
49723;BME280;43484;43.608;1.458;2023-03-01T14:21:33;99897.75;;;5.49;99.03
49723;BME280;43484;43.608;1.458;2023-03-01T14:24:01;99891.81;;;5.82;100.00
49723;BME280;43484;43.608;1.458;2023-03-01T14:26:37;99888.63;;;5.86;99.57
49723;BME280;43484;43.608;1.458;2023-03-01T14:29:04;99873.97;;;5.65;100.00
49723;BME280;43484;43.608;1.458;2023-03-01T14:31:35;99884.25;;;6.01;100.00
49723;BME280;43484;43.608;1.458;2023-03-01T14:34:24;99884.94;;;5.97;100.00
49723;BME280;43484;43.608;1.458;2023-03-01T14:36:50;99882.63;;;5.84;100.00
49723;BME280;43484;43.608;1.458;2023-03-01T14:39:22;99882.75;;;5.87;100.00
49723;BME280;43484;43.608;1.458;2023-03-01T14:41:50;99878.38;;;5.85;100.00
49723;BME280;43484;43.608;1.458;2023-03-01T14:44:22;99883.03;;;5.93;99.81
49723;BME280;43484;43.608;1.458;2023-03-01T14:46:55;99893.06;;;6.08;99.13
49723;BME280;43484;43.608;1.458;2023-03-01T14:49:25;99888.63;;;6.04;98.58
49723;BME280;43484;43.608;1.458;2023-03-01T14:51:58;99883.72;;;5.89;99.31